Airfield :
LOGIN :

Register | Disclaimer

   EN    FR    IT 

 










Legend :    VFR   Marginal VFR   IFR   Intensive IFR   Very Intensive IFR
Visi :
Ceiling :
>= 8 km
>= 3000ft
5 to 8 km
1000 to 3000 ft
1500m to 5 km
500 to 1000 ft
800 to 1500m
200 to 500 ft
< 800m
< 200 ft
Symbols :   Thunderstorms  Fog  Heavy snow  Heavy precipitations  Wind > 20 kt
SIGMETs :     Misc.  Thunderstorms  Icing  Turbulence  Mountain Waves  Volcanic Ashes






- Airport Elevation : 256 ft
- IATA code : CFR


LFRK - Caen

CURRENT METAR :
  • 122200Z AUTO 32004KT CAVOK 12/10 Q1027

EXPIRED METARs :
  • 122130Z AUTO 34004KT 310V010 CAVOK 13/10 Q1027
  • 122100Z AUTO 34004KT CAVOK 15/11 Q1027
  • 122030Z AUTO 01004KT 330V040 CAVOK 15/11 Q1026
  • 122000Z AUTO 36005KT 320V030 CAVOK 16/11 Q1026 NOSIG
  • 121930Z AUTO 01008KT 340V050 CAVOK 17/11 Q1026 NOSIG

TAF TAF LFRK
Valid from the 12 at 15:00 until the 13 at 00:00 UTC


121400Z 1215/1224 02013KT CAVOK
PROB30
TEMPO 1215/1218 02015G25KT
BECMG 1221/1224 36005KT
Met : +33 2 31 26 68 11



MET'MAP, your aeronautical weather chart ! - Copyright ORBIFLY December 2007 - Disclaimer

ORBIFLY MET'MAP TEAM :

Programming & Development : Alexandra Zaïnal
Concept & original design : Baudouin d'Aumeries
Assistance for programming : Marc-Olivier Méhu
Technical & hardware support : Manuel Goepfert

Contact : metmap@orbifly.com




SOURCES & CREDITS :

   NOAA